createdAt,value
2018-04-11T00:00:57.504Z,74.77
2018-04-11T00:01:57.492Z,75.89
2018-04-11T00:02:57.480Z,76.84
2018-04-11T00:03:57.461Z,78.00
2018-04-11T00:04:57.451Z,78.44
2018-04-11T00:05:57.438Z,78.82
2018-04-11T00:06:57.424Z,79.59
2018-04-11T00:07:57.415Z,79.39
2018-04-11T00:08:57.405Z,78.96
2018-04-11T00:09:57.393Z,79.24
2018-04-11T00:10:57.383Z,78.67
2018-04-11T00:11:57.374Z,78.38
2018-04-11T00:12:57.353Z,78.57
2018-04-11T00:13:57.346Z,79.63
2018-04-11T00:14:57.331Z,80.26
2018-04-11T00:15:57.323Z,81.31
2018-04-11T00:16:57.304Z,81.51
2018-04-11T00:17:57.345Z,81.12
2018-04-11T00:18:57.297Z,81.22
2018-04-11T00:19:57.270Z,80.83
2018-04-11T00:20:57.257Z,80.74
2018-04-11T00:21:57.246Z,80.07
2018-04-11T00:22:57.235Z,80.30
2018-04-11T00:23:57.219Z,80.40
2018-04-11T00:24:57.211Z,80.11
2018-04-11T00:25:57.196Z,80.93
2018-04-11T00:26:57.186Z,81.70
2018-04-11T00:27:57.176Z,81.98
2018-04-11T00:28:57.157Z,81.89
2018-04-11T00:29:57.145Z,82.08
2018-04-11T00:30:57.137Z,82.56
2018-04-11T00:31:57.122Z,82.08
2018-04-11T00:32:57.109Z,82.27
2018-04-11T00:33:57.093Z,82.08
2018-04-11T00:34:57.082Z,82.46
2018-04-11T00:35:57.071Z,82.75
2018-04-11T00:36:57.052Z,82.94
2018-04-11T00:37:57.042Z,83.14
2018-04-11T00:38:57.032Z,83.14
2018-04-11T00:39:57.013Z,83.33
2018-04-11T00:40:57.008Z,83.33
2018-04-11T00:41:56.993Z,83.81
2018-04-11T00:42:56.981Z,83.91
2018-04-11T00:43:56.974Z,84.28
2018-04-11T00:44:56.994Z,84.00
2018-04-11T00:45:56.945Z,84.38
2018-04-11T00:46:56.935Z,84.67
2018-04-11T00:47:56.921Z,85.34
2018-04-11T00:48:56.918Z,85.25
2018-04-11T00:49:56.889Z,85.72
2018-04-11T00:50:56.881Z,86.40
2018-04-11T00:51:56.868Z,86.58
2018-04-11T00:52:56.851Z,86.97
2018-04-11T00:53:56.841Z,86.97
2018-04-11T00:54:56.825Z,86.97
2018-04-11T00:55:56.814Z,87.26
2018-04-11T00:56:56.803Z,87.45
2018-04-11T00:57:56.790Z,87.26
2018-04-11T00:58:56.780Z,87.64
2018-04-11T00:59:56.770Z,87.16
2018-04-11T01:00:56.749Z,86.78
2018-04-11T01:01:56.737Z,87.45
2018-04-11T01:02:56.734Z,87.84
2018-04-11T01:03:56.709Z,87.55
2018-04-11T01:04:56.698Z,87.26
2018-04-11T01:05:56.689Z,87.26
2018-04-11T01:06:56.679Z,88.41
2018-04-11T01:07:56.659Z,88.08
2018-04-11T01:08:56.649Z,88.17
2018-04-11T01:09:56.636Z,88.37
2018-04-11T01:10:56.626Z,87.98
2018-04-11T01:11:56.609Z,88.37
2018-04-11T01:12:56.605Z,88.08
2018-04-11T01:13:56.585Z,88.65
2018-04-11T01:14:56.569Z,88.65
2018-04-11T01:15:56.559Z,88.75
2018-04-11T01:16:56.542Z,88.84
2018-04-11T01:17:56.537Z,88.65
2018-04-11T01:18:56.519Z,88.65
2018-04-11T01:19:56.509Z,88.56
2018-04-11T01:20:56.498Z,89.04
2018-04-11T01:21:56.481Z,88.94
2018-04-11T01:22:56.467Z,88.46
2018-04-11T01:23:56.452Z,88.65
2018-04-11T01:24:56.452Z,88.94
2018-04-11T01:25:56.429Z,89.71
2018-04-11T01:26:56.413Z,89.61
2018-04-11T01:27:56.410Z,89.71
2018-04-11T01:28:56.387Z,89.90
2018-04-11T01:29:56.381Z,88.75
2018-04-11T01:30:56.369Z,88.84
2018-04-11T01:31:56.347Z,89.13
2018-04-11T01:32:56.342Z,88.56
2018-04-11T01:33:56.324Z,88.17
2018-04-11T01:34:56.312Z,88.84
2018-04-11T01:35:56.303Z,89.04
2018-04-11T01:36:56.285Z,88.99
2018-04-11T01:37:56.279Z,89.47
2018-04-11T01:38:56.257Z,89.57
2018-04-11T01:39:56.259Z,89.57
2018-04-11T01:40:56.229Z,89.37
2018-04-11T01:41:56.217Z,89.47
2018-04-11T01:42:56.207Z,89.47
2018-04-11T01:43:56.198Z,89.37
2018-04-11T01:44:56.178Z,89.18
2018-04-11T01:45:56.167Z,89.57
2018-04-11T01:46:56.156Z,89.95
2018-04-11T01:47:56.136Z,90.05
2018-04-11T01:48:56.128Z,89.47
2018-04-11T01:49:56.116Z,89.76
2018-04-11T01:50:56.099Z,89.28
2018-04-11T01:51:56.090Z,89.66
2018-04-11T01:52:56.073Z,89.47
2018-04-11T01:53:56.060Z,89.66
2018-04-11T01:54:56.054Z,89.95
2018-04-11T01:55:56.037Z,89.76
2018-04-11T01:56:56.028Z,89.57
2018-04-11T01:57:56.009Z,89.66
2018-04-11T01:58:55.999Z,89.57
2018-04-11T01:59:55.978Z,89.28
2018-04-11T02:00:55.969Z,89.66
2018-04-11T02:01:55.963Z,89.57
2018-04-11T02:02:56.016Z,89.95
2018-04-11T02:03:55.926Z,90.33
2018-04-11T02:04:55.918Z,90.23
2018-04-11T02:05:55.899Z,90.33
2018-04-11T02:06:56.002Z,90.53
2018-04-11T02:07:55.881Z,90.43
2018-04-11T02:08:56.063Z,90.09
2018-04-11T02:09:55.849Z,90.77
2018-04-11T02:10:55.839Z,90.86
2018-04-11T02:11:55.819Z,91.15
2018-04-11T02:12:55.852Z,91.25
2018-04-11T02:13:55.793Z,91.34
2018-04-11T02:14:55.827Z,90.48
2018-04-11T02:15:55.767Z,90.96
2018-04-11T02:16:55.748Z,90.96
2018-04-11T02:17:55.735Z,90.67
2018-04-11T02:18:55.725Z,90.86
2018-04-11T02:19:55.708Z,90.96
2018-04-11T02:20:55.699Z,91.44
2018-04-11T02:21:55.684Z,91.44
2018-04-11T02:22:55.667Z,91.25
2018-04-11T02:23:55.659Z,91.30
2018-04-11T02:24:55.648Z,91.34
2018-04-11T02:25:55.629Z,91.15
2018-04-11T02:26:55.618Z,91.53
2018-04-11T02:27:55.600Z,91.53
2018-04-11T02:28:55.591Z,91.53
2018-04-11T02:29:55.573Z,91.63
2018-04-11T02:30:55.570Z,90.86
2018-04-11T02:31:55.561Z,91.15
2018-04-11T02:32:55.546Z,90.82
2018-04-11T02:33:55.520Z,91.15
2018-04-11T02:34:55.511Z,91.63
2018-04-11T02:35:55.491Z,91.25
2018-04-11T02:36:55.484Z,91.20
2018-04-11T02:37:55.468Z,90.91
2018-04-11T02:38:55.452Z,91.30
2018-04-11T02:39:55.439Z,91.15
2018-04-11T02:40:55.430Z,91.11
2018-04-11T02:41:55.414Z,91.11
2018-04-11T02:42:55.402Z,91.11
2018-04-11T02:43:55.382Z,91.30
2018-04-11T02:44:55.412Z,91.49
2018-04-11T02:45:55.367Z,91.20
2018-04-11T02:46:55.341Z,91.58
2018-04-11T02:47:55.325Z,91.68
2018-04-11T02:48:55.313Z,92.11
2018-04-11T02:49:55.298Z,91.73
2018-04-11T02:50:55.283Z,92.21
2018-04-11T02:51:55.269Z,92.49
2018-04-11T02:52:55.251Z,92.78
2018-04-11T02:53:55.244Z,92.83
2018-04-11T02:54:55.222Z,93.31
2018-04-11T02:55:55.216Z,93.40
2018-04-11T02:56:55.198Z,93.69
2018-04-11T02:57:55.185Z,93.50
2018-04-11T02:58:55.167Z,93.31
2018-04-11T02:59:55.157Z,93.98
2018-04-11T03:00:55.136Z,93.79
2018-04-11T03:01:55.133Z,93.40
2018-04-11T03:02:55.108Z,93.50
2018-04-11T03:03:55.102Z,93.88
2018-04-11T03:04:55.078Z,94.07
2018-04-11T03:05:55.062Z,93.60
2018-04-11T03:06:55.056Z,93.69
2018-04-11T03:07:55.036Z,93.69
2018-04-11T03:08:55.026Z,93.69
2018-04-11T03:09:55.010Z,93.31
2018-04-11T03:10:54.992Z,93.02
2018-04-11T03:11:54.980Z,92.54
2018-04-11T03:12:54.963Z,92.74
2018-04-11T03:13:54.954Z,92.83
2018-04-11T03:14:54.940Z,92.83
2018-04-11T03:15:54.919Z,92.64
2018-04-11T03:16:54.911Z,93.02
2018-04-11T03:17:54.900Z,92.93
2018-04-11T03:18:54.887Z,92.97
2018-04-11T03:19:54.867Z,93.31
2018-04-11T03:20:54.849Z,92.74
2018-04-11T03:21:54.860Z,92.93
2018-04-11T03:22:54.818Z,92.83
2018-04-11T03:23:54.807Z,92.83
2018-04-11T03:24:54.787Z,92.74
2018-04-11T03:25:54.776Z,92.74
2018-04-11T03:26:54.755Z,93.02
2018-04-11T03:27:54.747Z,92.93
2018-04-11T03:28:54.731Z,93.02
2018-04-11T03:29:54.710Z,92.64
2018-04-11T03:30:54.698Z,92.35
2018-04-11T03:31:54.687Z,92.54
2018-04-11T03:32:54.663Z,92.83
2018-04-11T03:33:54.656Z,92.88
2018-04-11T03:34:54.636Z,92.69
2018-04-11T03:35:54.625Z,92.97
2018-04-11T03:36:54.605Z,93.07
2018-04-11T03:37:54.598Z,92.97
2018-04-11T03:38:54.576Z,93.36
2018-04-11T03:39:54.675Z,92.88
2018-04-11T03:40:54.548Z,92.88
2018-04-11T03:41:54.539Z,92.79
2018-04-11T03:42:54.517Z,92.88
2018-04-11T03:43:54.506Z,92.79
2018-04-11T03:44:54.488Z,92.79
2018-04-11T03:45:54.476Z,92.79
2018-04-11T03:46:54.465Z,92.79
2018-04-11T03:47:54.446Z,92.21
2018-04-11T03:48:54.426Z,92.59
2018-04-11T03:49:54.416Z,92.21
2018-04-11T03:50:54.401Z,92.30
2018-04-11T03:51:54.515Z,92.21
2018-04-11T03:52:54.367Z,92.21
2018-04-11T03:53:54.507Z,91.83
2018-04-11T03:54:54.337Z,92.02
2018-04-11T03:55:54.327Z,92.11
2018-04-11T03:56:54.307Z,92.30
2018-04-11T03:57:54.368Z,92.16
2018-04-11T03:58:54.295Z,92.21
2018-04-11T03:59:54.266Z,91.35
2018-04-11T04:00:54.247Z,91.88
2018-04-11T04:01:54.237Z,91.49
2018-04-11T04:02:54.231Z,91.54
2018-04-11T04:03:54.203Z,91.88
2018-04-11T04:04:54.188Z,91.06
2018-04-11T04:05:54.176Z,91.35
2018-04-11T04:06:54.166Z,91.54
2018-04-11T04:07:54.144Z,91.45
2018-04-11T04:08:54.127Z,92.30
2018-04-11T04:09:54.111Z,91.39
2018-04-11T04:10:54.097Z,92.50
2018-04-11T04:11:54.080Z,91.83
2018-04-11T04:12:54.065Z,91.83
2018-04-11T04:13:54.060Z,91.93
2018-04-11T04:14:54.043Z,91.97
2018-04-11T04:15:54.028Z,91.45
2018-04-11T04:16:54.007Z,91.64
2018-04-11T04:17:53.996Z,91.45
2018-04-11T04:18:53.977Z,91.74
2018-04-11T04:19:53.967Z,92.40
2018-04-11T04:20:53.946Z,91.35
2018-04-11T04:21:53.930Z,92.30
2018-04-11T04:22:53.916Z,92.11
2018-04-11T04:23:53.910Z,92.11
2018-04-11T04:24:53.886Z,91.25
2018-04-11T04:25:53.886Z,92.11
2018-04-11T04:26:53.856Z,92.30
2018-04-11T04:27:53.840Z,92.40
2018-04-11T04:28:53.826Z,92.02
2018-04-11T04:29:53.812Z,92.30
2018-04-11T04:30:53.793Z,92.30
2018-04-11T04:31:53.781Z,92.40
2018-04-11T04:32:53.766Z,92.59
2018-04-11T04:33:53.749Z,92.50
2018-04-11T04:34:53.734Z,91.93
2018-04-11T04:35:53.718Z,92.21
2018-04-11T04:36:53.702Z,92.30
2018-04-11T04:37:53.689Z,92.02
2018-04-11T04:38:53.674Z,92.11
2018-04-11T04:39:53.663Z,92.11
2018-04-11T04:40:53.647Z,92.02
2018-04-11T04:41:53.629Z,91.93
2018-04-11T04:42:53.615Z,91.25
2018-04-11T04:43:53.597Z,91.93
2018-04-11T04:44:53.583Z,92.40
2018-04-11T04:45:53.566Z,91.93
2018-04-11T04:46:53.552Z,91.93
2018-04-11T04:47:53.548Z,92.02
2018-04-11T04:48:53.524Z,91.97
2018-04-11T04:49:53.505Z,91.88
2018-04-11T04:50:53.493Z,92.36
2018-04-11T04:51:53.474Z,92.45
2018-04-11T04:52:53.465Z,92.36
2018-04-11T04:53:53.454Z,92.93
2018-04-11T04:54:53.433Z,92.74
2018-04-11T04:55:53.461Z,92.55
2018-04-11T04:56:53.408Z,92.74
2018-04-11T04:57:53.385Z,92.93
2018-04-11T04:58:53.376Z,93.21
2018-04-11T04:59:53.355Z,93.02
2018-04-11T05:00:53.341Z,92.88
2018-04-11T05:01:53.324Z,93.26
2018-04-11T05:02:53.306Z,93.21
2018-04-11T05:03:53.646Z,93.36
2018-04-11T05:04:53.275Z,93.17
2018-04-11T05:05:53.262Z,92.97
2018-04-11T05:06:53.245Z,93.46
2018-04-11T05:07:53.230Z,93.55
2018-04-11T05:08:53.224Z,93.46
2018-04-11T05:09:53.199Z,93.36
2018-04-11T05:10:53.186Z,93.55
2018-04-11T05:11:53.170Z,93.65
2018-04-11T05:12:53.157Z,93.55
2018-04-11T05:13:53.136Z,93.36
2018-04-11T05:14:53.122Z,93.17
2018-04-11T05:15:53.106Z,93.02
2018-04-11T05:16:53.097Z,93.07
2018-04-11T05:17:53.074Z,93.36
2018-04-11T05:18:53.059Z,93.07
2018-04-11T05:19:53.043Z,93.65
2018-04-11T05:20:53.028Z,93.55
2018-04-11T05:21:53.013Z,94.03
2018-04-11T05:22:53.000Z,93.74
2018-04-11T05:23:52.984Z,93.84
2018-04-11T05:24:52.964Z,92.97
2018-04-11T05:25:52.951Z,93.46
2018-04-11T05:26:52.932Z,93.74
2018-04-11T05:27:52.920Z,93.65
2018-04-11T05:28:52.903Z,93.65
2018-04-11T05:29:52.902Z,93.55
2018-04-11T05:30:52.878Z,93.84
2018-04-11T05:31:52.856Z,93.46
2018-04-11T05:32:52.840Z,93.17
2018-04-11T05:33:52.825Z,93.70
2018-04-11T05:34:52.813Z,93.41
2018-04-11T05:35:52.804Z,93.07
2018-04-11T05:36:52.775Z,92.79
2018-04-11T05:37:52.765Z,93.02
2018-04-11T05:38:52.756Z,92.64
2018-04-11T05:39:52.730Z,92.74
2018-04-11T05:40:52.849Z,92.83
2018-04-11T05:41:52.712Z,92.45
2018-04-11T05:42:52.691Z,92.55
2018-04-11T05:43:52.672Z,92.64
2018-04-11T05:44:52.657Z,92.36
2018-04-11T05:45:52.642Z,92.26
2018-04-11T05:46:52.623Z,92.16
2018-04-11T05:47:52.606Z,91.97
2018-04-11T05:48:52.595Z,91.88
2018-04-11T05:49:52.575Z,91.88
2018-04-11T05:50:52.566Z,91.88
2018-04-11T05:51:52.555Z,91.50
2018-04-11T05:52:52.536Z,91.88
2018-04-11T05:53:52.516Z,91.88
2018-04-11T05:54:52.504Z,92.36
2018-04-11T05:55:52.485Z,92.26
2018-04-11T05:56:52.474Z,92.07
2018-04-11T05:57:52.455Z,91.97
2018-04-11T05:58:52.446Z,92.07
2018-04-11T05:59:52.426Z,91.88
2018-04-11T06:00:52.434Z,91.97
2018-04-11T06:01:52.400Z,92.07
2018-04-11T06:02:52.383Z,92.26
2018-04-11T06:03:52.358Z,91.40
2018-04-11T06:04:52.344Z,91.30
2018-04-11T06:05:52.330Z,91.50
2018-04-11T06:06:52.317Z,91.78
2018-04-11T06:07:52.306Z,91.50
2018-04-11T06:08:52.285Z,91.40
2018-04-11T06:09:52.286Z,91.69
2018-04-11T06:10:52.261Z,91.50
2018-04-11T06:11:52.237Z,91.21
2018-04-11T06:12:52.226Z,91.02
2018-04-11T06:13:52.209Z,90.97
2018-04-11T06:14:52.211Z,91.25
2018-04-11T06:15:52.177Z,91.16
2018-04-11T06:16:52.163Z,91.40
2018-04-11T06:17:52.146Z,91.16
2018-04-11T06:18:52.136Z,91.25
2018-04-11T06:19:52.123Z,91.25
2018-04-11T06:20:52.105Z,90.88
2018-04-11T06:21:52.092Z,90.78
2018-04-11T06:22:52.101Z,90.78
2018-04-11T06:23:52.064Z,90.49
2018-04-11T06:24:52.043Z,90.11
2018-04-11T06:25:52.033Z,90.06
2018-04-11T06:26:52.023Z,89.25
2018-04-11T06:27:52.004Z,89.39
2018-04-11T06:28:51.986Z,89.48
2018-04-11T06:29:52.028Z,89.58
2018-04-11T06:30:51.959Z,89.87
2018-04-11T06:31:51.943Z,89.87
2018-04-11T06:32:51.930Z,89.39
2018-04-11T06:33:51.923Z,88.62
2018-04-11T06:34:51.902Z,88.53
2018-04-11T06:35:51.895Z,88.62
2018-04-11T06:36:51.873Z,88.81
2018-04-11T06:37:51.863Z,88.81
2018-04-11T06:38:51.849Z,88.57
2018-04-11T06:39:51.835Z,88.05
2018-04-11T06:40:51.865Z,88.24
2018-04-11T06:41:51.812Z,88.05
2018-04-11T06:42:51.809Z,88.76
2018-04-11T06:43:51.775Z,87.71
2018-04-11T06:44:51.766Z,87.71
2018-04-11T06:45:51.753Z,87.71
2018-04-11T06:46:51.734Z,87.23
2018-04-11T06:47:51.723Z,87.52
2018-04-11T06:48:51.710Z,87.04
2018-04-11T06:49:51.703Z,86.66
2018-04-11T06:50:51.683Z,85.94
2018-04-11T06:51:51.671Z,85.17
2018-04-11T06:52:51.664Z,84.26
2018-04-11T06:53:51.653Z,83.87
2018-04-11T06:54:51.644Z,83.30
2018-04-11T06:55:51.626Z,81.90
2018-04-11T06:56:51.616Z,79.74
2018-04-11T06:57:51.603Z,78.11
2018-04-11T06:58:51.593Z,75.65
2018-04-11T06:59:51.584Z,74.26
2018-04-11T07:00:51.570Z,72.47
2018-04-11T07:01:51.559Z,70.74
2018-04-11T07:02:51.553Z,69.43
2018-04-11T07:03:51.538Z,68.28
2018-04-11T07:04:51.527Z,67.70
2018-04-11T07:05:51.522Z,66.55
2018-04-11T07:06:51.511Z,65.20
2018-04-11T07:07:51.508Z,64.37
2018-04-11T07:08:51.494Z,63.64
2018-04-11T07:09:51.483Z,62.68
2018-04-11T07:10:51.473Z,61.84
2018-04-11T07:11:51.470Z,61.07
2018-04-11T07:12:51.473Z,60.88
2018-04-11T07:13:51.460Z,60.39
2018-04-11T07:14:51.444Z,59.66
2018-04-11T07:15:51.443Z,59.08
2018-04-11T07:16:51.426Z,58.18
2018-04-11T07:17:51.573Z,58.28
2018-04-11T07:18:51.412Z,58.02
2018-04-11T07:19:51.470Z,57.86
2018-04-11T07:20:51.400Z,56.90
2018-04-11T07:21:51.417Z,56.05
2018-04-11T07:22:51.390Z,54.90
2018-04-11T07:23:51.403Z,55.02
2018-04-11T07:24:51.389Z,54.35
2018-04-11T07:25:51.432Z,53.39
2018-04-11T07:26:51.369Z,53.55
2018-04-11T07:27:51.413Z,53.58
2018-04-11T07:28:51.365Z,52.81
2018-04-11T07:29:51.364Z,52.71
2018-04-11T07:30:51.348Z,52.87
2018-04-11T07:31:51.343Z,53.19
2018-04-11T07:32:51.339Z,52.91
2018-04-11T07:33:51.344Z,52.45
2018-04-11T07:34:51.332Z,51.29
2018-04-11T07:35:51.331Z,52.61
2018-04-11T07:36:51.329Z,52.42
2018-04-11T07:37:56.381Z,51.68
2018-04-11T07:38:51.323Z,50.54
2018-04-11T07:39:51.322Z,49.99
2018-04-11T07:40:51.315Z,49.60
2018-04-11T07:41:51.313Z,48.28
2018-04-11T07:42:51.324Z,47.50
2018-04-11T07:43:51.312Z,49.00
2018-04-11T07:44:51.308Z,48.81
2018-04-11T07:45:51.312Z,49.00
2018-04-11T07:46:51.412Z,48.25
2018-04-11T07:49:51.313Z,47.12
2018-04-11T07:50:51.404Z,47.22
2018-04-11T07:51:51.307Z,47.50
2018-04-11T07:52:51.303Z,46.27
2018-04-11T07:53:51.299Z,46.20
2018-04-11T07:54:51.302Z,45.54
2018-04-11T07:55:51.299Z,44.98
2018-04-11T07:56:51.302Z,43.85
2018-04-11T07:57:51.303Z,44.12
2018-04-11T07:58:51.309Z,43.82
2018-04-11T07:59:57.579Z,43.44
2018-04-11T08:00:51.300Z,43.54
2018-04-11T08:01:51.305Z,43.37
2018-04-11T08:02:51.309Z,42.97
2018-04-11T08:03:51.309Z,42.51
2018-04-11T08:04:51.314Z,42.14
2018-04-11T08:05:51.306Z,41.17
2018-04-11T08:06:51.306Z,40.69
2018-04-11T08:07:51.304Z,40.79
2018-04-11T08:08:51.305Z,40.71
2018-04-11T08:09:51.301Z,40.05
2018-04-11T08:10:51.298Z,41.06
2018-04-11T08:11:51.299Z,43.61
2018-04-11T08:12:51.299Z,44.19
2018-04-11T08:13:51.300Z,44.67
2018-04-11T08:14:51.307Z,44.23
2018-04-11T08:15:51.300Z,42.72
2018-04-11T08:16:51.303Z,40.99
2018-04-11T08:17:51.304Z,40.44
2018-04-11T08:18:51.304Z,40.13
2018-04-11T08:19:51.320Z,40.13
2018-04-11T08:20:51.312Z,39.67
2018-04-11T08:21:51.306Z,39.28
2018-04-11T08:22:54.344Z,39.22
2018-04-11T08:23:51.312Z,38.07
2018-04-11T08:24:51.312Z,36.71
2018-04-11T08:25:51.322Z,36.99
2018-04-11T08:26:51.325Z,38.12
2018-04-11T08:27:51.320Z,38.42
2018-04-11T08:28:51.327Z,37.86
2018-04-11T08:29:51.330Z,37.84
2018-04-11T08:30:51.341Z,38.91
2018-04-11T08:31:51.333Z,39.11
2018-04-11T08:32:51.333Z,37.84
2018-04-11T08:33:51.332Z,37.82
2018-04-11T08:34:51.347Z,38.23
2018-04-11T08:35:51.339Z,39.16
2018-04-11T08:36:51.348Z,40.11
2018-04-11T08:37:51.342Z,38.99
2018-04-11T08:38:51.355Z,39.36
2018-04-11T08:39:51.354Z,39.74
2018-04-11T08:40:51.354Z,39.20
2018-04-11T08:41:51.362Z,37.66
2018-04-11T08:42:51.361Z,37.28
2018-04-11T08:43:51.357Z,36.65
2018-04-11T08:44:51.363Z,36.73
2018-04-11T08:45:51.370Z,35.97
2018-04-11T08:46:51.372Z,35.29
2018-04-11T08:47:51.379Z,34.92
2018-04-11T08:48:51.383Z,36.16
2018-04-11T08:49:51.383Z,34.92
2018-04-11T08:50:51.384Z,34.03
2018-04-11T08:51:51.393Z,36.21
2018-04-11T08:52:51.394Z,37.08
2018-04-11T08:53:51.395Z,37.30
2018-04-11T08:54:51.400Z,37.12
2018-04-11T08:55:51.399Z,35.70
2018-04-11T08:56:51.406Z,34.64
2018-04-11T08:57:51.405Z,34.61
2018-04-11T08:58:51.413Z,35.16
2018-04-11T08:59:51.412Z,36.65
2018-04-11T09:00:51.427Z,35.80
2018-04-11T09:01:51.424Z,34.84
2018-04-11T09:02:51.422Z,35.11
2018-04-11T09:03:51.423Z,33.96
2018-04-11T09:04:51.422Z,34.76
2018-04-11T09:05:51.425Z,34.08
2018-04-11T09:06:51.433Z,33.96
2018-04-11T09:07:51.439Z,34.53
2018-04-11T09:08:51.434Z,35.27
2018-04-11T09:09:51.433Z,35.11
2018-04-11T09:10:51.440Z,35.13
2018-04-11T09:11:51.441Z,35.15
2018-04-11T09:12:51.444Z,33.51
2018-04-11T09:13:51.440Z,33.53
2018-04-11T09:14:51.444Z,32.35
2018-04-11T09:15:51.443Z,32.76
2018-04-11T09:16:51.444Z,33.01
2018-04-11T09:17:51.443Z,34.00
2018-04-11T09:18:51.453Z,34.63
2018-04-11T09:19:51.450Z,35.89
2018-04-11T09:20:51.523Z,34.55
2018-04-11T09:21:51.458Z,34.63
2018-04-11T09:22:51.456Z,34.32
2018-04-11T09:23:51.454Z,35.99
2018-04-11T09:24:51.454Z,34.27
2018-04-11T09:25:51.454Z,34.88
2018-04-11T09:26:51.454Z,33.80
2018-04-11T09:27:51.455Z,33.14
2018-04-11T09:28:51.450Z,32.94
2018-04-11T09:29:51.454Z,32.55
2018-04-11T09:30:51.463Z,33.02
2018-04-11T09:31:51.480Z,33.46
2018-04-11T09:32:51.453Z,34.64
2018-04-11T09:33:51.458Z,34.35
2018-04-11T09:34:51.445Z,34.55
2018-04-11T09:35:51.448Z,34.56
2018-04-11T09:36:51.443Z,34.88
2018-04-11T09:37:51.443Z,35.78
2018-04-11T09:38:51.448Z,35.91
2018-04-11T09:39:51.455Z,34.94
2018-04-11T09:40:51.434Z,34.53
2018-04-11T09:41:51.480Z,35.21
2018-04-11T09:42:51.435Z,35.02
2018-04-11T09:43:51.436Z,35.11
2018-04-11T09:44:51.434Z,35.89
2018-04-11T09:45:51.425Z,35.02
2018-04-11T09:46:51.427Z,34.55
2018-04-11T09:47:51.426Z,35.21
2018-04-11T09:48:51.416Z,35.31
2018-04-11T09:49:51.415Z,35.89
2018-04-11T09:50:51.416Z,35.50
2018-04-11T09:51:51.422Z,36.69
2018-04-11T09:52:51.415Z,35.34
2018-04-11T09:53:51.413Z,35.44
2018-04-11T09:54:51.403Z,34.88
2018-04-11T09:55:51.394Z,34.09
2018-04-11T09:56:51.392Z,35.23
2018-04-11T09:57:51.397Z,35.52
2018-04-11T09:58:51.389Z,35.44
2018-04-11T09:59:51.383Z,35.02
2018-04-11T10:00:51.388Z,36.73
2018-04-11T10:01:51.385Z,38.25
2018-04-11T10:02:51.374Z,37.96
2018-04-11T10:03:51.374Z,38.27
2018-04-11T10:04:51.364Z,38.07
2018-04-11T10:05:51.358Z,38.29
2018-04-11T10:06:51.373Z,37.02
2018-04-11T10:07:51.355Z,37.37
2018-04-11T10:08:51.354Z,37.96
2018-04-11T10:09:51.342Z,39.39
2018-04-11T10:10:51.343Z,39.20
2018-04-11T10:11:51.345Z,39.59
2018-04-11T10:12:51.336Z,40.01
2018-04-11T10:13:51.327Z,38.67
2018-04-11T10:14:51.324Z,38.11
2018-04-11T10:15:51.324Z,37.06
2018-04-11T10:16:51.314Z,36.10
2018-04-11T10:17:51.311Z,35.91
2018-04-11T10:18:51.306Z,35.83
2018-04-11T10:19:51.303Z,36.57
2018-04-11T10:20:51.296Z,36.88
2018-04-11T10:21:51.292Z,37.02
2018-04-11T10:22:51.298Z,37.12
2018-04-11T10:23:51.279Z,38.70
2018-04-11T10:24:51.331Z,40.42
2018-04-11T10:25:51.273Z,41.56
2018-04-11T10:26:51.269Z,42.05
2018-04-11T10:27:51.259Z,41.86
2018-04-11T10:28:51.259Z,41.35
2018-04-11T10:29:51.262Z,42.96
2018-04-11T10:30:51.249Z,44.09
2018-04-11T10:31:51.256Z,45.72
2018-04-11T10:32:51.234Z,45.98
2018-04-11T10:33:51.232Z,46.66
2018-04-11T10:34:51.226Z,46.66
2018-04-11T10:35:51.223Z,47.43
2018-04-11T10:37:51.206Z,46.68
2018-04-11T10:38:51.204Z,47.67
2018-04-11T10:39:51.194Z,47.28
2018-04-11T10:40:51.192Z,46.80
2018-04-11T10:41:51.195Z,46.78
2018-04-11T10:42:51.182Z,47.65
2018-04-11T10:43:51.177Z,47.63
2018-04-11T10:44:51.163Z,48.64
2018-04-11T10:45:51.152Z,51.03
2018-04-11T10:46:51.153Z,51.80
2018-04-11T10:47:51.154Z,52.47
2018-04-11T10:48:51.134Z,51.51
2018-04-11T10:49:51.125Z,52.45
2018-04-11T10:50:51.119Z,52.93
2018-04-11T10:51:51.110Z,52.91
2018-04-11T10:52:51.109Z,54.25
2018-04-11T10:53:51.102Z,54.03
2018-04-11T10:54:51.093Z,54.25
2018-04-11T10:55:51.086Z,53.87
2018-04-11T10:56:51.073Z,54.35
2018-04-11T10:57:51.073Z,52.93
2018-04-11T10:58:51.052Z,53.70
2018-04-11T10:59:51.050Z,54.06
2018-04-11T11:00:51.045Z,53.99
2018-04-11T11:01:51.035Z,54.54
2018-04-11T11:02:51.025Z,54.38
2018-04-11T11:03:51.082Z,54.44
2018-04-11T11:04:51.005Z,54.74
2018-04-11T11:05:51.093Z,54.06
2018-04-11T11:06:50.990Z,55.22
2018-04-11T11:07:51.091Z,54.83
2018-04-11T11:08:50.974Z,55.09
2018-04-11T11:09:51.013Z,55.67
2018-04-11T11:10:50.953Z,56.15
2018-04-11T11:11:50.994Z,56.92
2018-04-11T11:12:50.932Z,56.35
2018-04-11T11:13:50.974Z,55.89
2018-04-11T11:14:50.926Z,56.27
2018-04-11T11:15:50.913Z,55.89
2018-04-11T11:16:50.897Z,56.37
2018-04-11T11:17:50.902Z,56.37
2018-04-11T11:18:50.896Z,56.37
2018-04-11T11:19:50.868Z,56.11
2018-04-11T11:20:50.864Z,54.57
2018-04-11T11:21:50.853Z,54.57
2018-04-11T11:22:50.848Z,54.47
2018-04-11T11:23:50.837Z,54.31
2018-04-11T11:24:50.830Z,53.34
2018-04-11T11:25:50.821Z,53.47
2018-04-11T11:26:50.807Z,53.08
2018-04-11T11:27:50.803Z,52.94
2018-04-11T11:28:50.794Z,51.13
2018-04-11T11:29:50.785Z,49.77
2018-04-11T11:30:50.775Z,49.99
2018-04-11T11:31:50.772Z,49.99
2018-04-11T11:32:50.762Z,48.52
2018-04-11T11:33:50.756Z,49.85
2018-04-11T11:34:50.744Z,49.53
2018-04-11T11:35:50.735Z,50.09
2018-04-11T11:36:50.732Z,51.63
2018-04-11T11:37:50.723Z,51.80
2018-04-11T11:38:50.716Z,52.35
2018-04-11T11:39:50.707Z,53.89
2018-04-11T11:40:50.696Z,53.48
2018-04-11T11:41:50.686Z,54.09
2018-04-11T11:42:50.680Z,53.99
2018-04-11T11:43:50.674Z,54.28
2018-04-11T11:44:50.674Z,54.38
2018-04-11T11:45:50.655Z,54.38
2018-04-11T11:46:50.650Z,55.22
2018-04-11T11:47:50.636Z,55.22
2018-04-11T11:48:50.646Z,55.29
2018-04-11T11:49:50.614Z,55.38
2018-04-11T11:50:50.614Z,56.80
2018-04-11T11:51:50.605Z,57.28
2018-04-11T11:52:50.686Z,57.73
2018-04-11T11:53:50.590Z,58.89
2018-04-11T11:54:50.638Z,59.08
2018-04-11T11:55:50.563Z,59.20
2018-04-11T11:56:50.552Z,59.94
2018-04-11T11:57:50.547Z,60.33
2018-04-11T11:58:50.534Z,60.36
2018-04-11T11:59:50.548Z,60.07
2018-04-11T12:00:50.513Z,59.78
2018-04-11T12:01:50.511Z,60.07
2018-04-11T12:02:50.494Z,60.17
2018-04-11T12:03:50.485Z,59.91
2018-04-11T12:04:50.476Z,60.30
2018-04-11T12:05:50.463Z,58.85
2018-04-11T12:06:50.459Z,58.65
2018-04-11T12:07:50.454Z,59.33
2018-04-11T12:08:50.441Z,59.14
2018-04-11T12:09:50.424Z,59.14
2018-04-11T12:10:50.417Z,59.33
2018-04-11T12:11:50.413Z,59.52
2018-04-11T12:12:50.404Z,59.62
2018-04-11T12:13:50.451Z,60.36
2018-04-11T12:14:50.376Z,59.88
2018-04-11T12:15:50.369Z,60.30
2018-04-11T12:16:50.364Z,60.10
2018-04-11T12:17:50.356Z,59.23
2018-04-11T12:18:50.341Z,59.40
2018-04-11T12:19:50.331Z,59.49
2018-04-11T12:20:50.321Z,60.52
2018-04-11T12:21:50.310Z,60.33
2018-04-11T12:22:50.303Z,60.91
2018-04-11T12:23:50.289Z,61.39
2018-04-11T12:24:50.282Z,61.97
2018-04-11T12:25:50.274Z,62.23
2018-04-11T12:26:50.259Z,63.57
2018-04-11T12:27:50.249Z,62.99
2018-04-11T12:28:50.250Z,63.86
2018-04-11T12:29:50.233Z,64.34
2018-04-11T12:30:50.216Z,64.53
2018-04-11T12:31:50.209Z,64.34
2018-04-11T12:32:50.206Z,64.82
2018-04-11T12:33:50.192Z,64.34
2018-04-11T12:34:50.184Z,64.63
2018-04-11T12:35:50.178Z,63.31
2018-04-11T12:36:50.160Z,64.82
2018-04-11T12:37:50.153Z,64.63
2018-04-11T12:38:50.147Z,64.92
2018-04-11T12:39:50.129Z,64.25
2018-04-11T12:40:50.127Z,63.95
2018-04-11T12:41:50.116Z,63.31
2018-04-11T12:42:50.105Z,63.60
2018-04-11T12:43:50.089Z,63.31
2018-04-11T12:44:50.086Z,62.74
2018-04-11T12:45:50.069Z,62.57
2018-04-11T12:46:50.063Z,61.83
2018-04-11T12:47:50.060Z,61.55
2018-04-11T12:48:50.038Z,61.45
2018-04-11T12:49:50.031Z,60.30
2018-04-11T12:50:50.025Z,60.10
2018-04-11T12:51:50.009Z,60.10
2018-04-11T12:52:50.002Z,60.90
2018-04-11T12:53:49.990Z,59.39
2018-04-11T12:54:49.979Z,58.40
2018-04-11T12:55:49.977Z,58.78